createdAt,value
2023-05-12T00:02:16.605Z,4.40
2023-05-12T00:04:44.490Z,4.90
2023-05-12T00:07:12.378Z,4.53
2023-05-12T00:09:41.944Z,4.30
2023-05-12T00:12:12.780Z,3.67
2023-05-12T00:14:40.663Z,4.80
2023-05-12T00:17:10.563Z,3.77
2023-05-12T00:19:39.617Z,4.13
2023-05-12T00:22:09.718Z,4.70
2023-05-12T00:24:42.083Z,5.17
2023-05-12T00:27:10.084Z,4.90
2023-05-12T00:29:37.869Z,5.40
2023-05-12T00:32:07.013Z,4.43
2023-05-12T00:34:34.888Z,4.57
2023-05-12T00:37:03.106Z,4.63
2023-05-12T00:39:31.155Z,5.23
2023-05-12T00:42:03.075Z,5.00
2023-05-12T00:44:30.878Z,4.97
2023-05-12T00:46:59.250Z,4.50
2023-05-12T00:49:28.040Z,4.57
2023-05-12T00:51:56.365Z,3.80
2023-05-12T00:54:24.189Z,4.97
2023-05-12T00:56:52.607Z,5.40
2023-05-12T00:59:23.741Z,5.13
2023-05-12T01:01:51.604Z,5.93
2023-05-12T01:04:19.573Z,6.23
2023-05-12T01:06:55.874Z,5.53
2023-05-12T01:09:23.985Z,5.37
2023-05-12T01:11:52.614Z,5.50
2023-05-12T01:14:20.714Z,5.20
2023-05-12T01:16:53.713Z,5.20
2023-05-12T01:19:42.457Z,5.00
2023-05-12T01:22:13.697Z,5.97
2023-05-12T01:24:47.665Z,5.23
2023-05-12T01:27:18.276Z,6.13
2023-05-12T01:29:50.721Z,7.00
2023-05-12T01:32:21.410Z,5.87
2023-05-12T01:34:50.278Z,6.83
2023-05-12T01:37:21.110Z,6.87
2023-05-12T01:39:49.452Z,6.67
2023-05-12T01:42:22.174Z,7.23
2023-05-12T01:44:51.164Z,7.23
2023-05-12T01:47:20.866Z,8.33
2023-05-12T01:49:58.649Z,7.60
2023-05-12T01:52:26.415Z,7.33
2023-05-12T01:54:54.266Z,9.20
2023-05-12T01:57:24.880Z,8.57
2023-05-12T01:59:56.601Z,7.63
2023-05-12T02:02:24.651Z,9.83
2023-05-12T02:04:52.659Z,7.47
2023-05-12T02:07:20.548Z,8.17
2023-05-12T02:09:48.744Z,9.03
2023-05-12T02:12:30.544Z,9.13
2023-05-12T02:14:58.385Z,11.07
2023-05-12T02:17:28.776Z,7.23
2023-05-12T02:20:00.055Z,9.33
2023-05-12T02:22:27.899Z,7.30
2023-05-12T02:24:55.813Z,9.57
2023-05-12T02:27:23.904Z,8.33
2023-05-12T02:29:53.989Z,7.90
2023-05-12T02:32:22.941Z,7.97
2023-05-12T02:34:51.644Z,9.90
2023-05-12T02:37:19.691Z,10.53
2023-05-12T02:39:47.771Z,8.03
2023-05-12T02:42:15.712Z,7.63
2023-05-12T02:44:45.794Z,8.93
2023-05-12T02:47:15.862Z,10.77
2023-05-12T02:49:43.675Z,10.20
2023-05-12T02:52:11.914Z,11.50
2023-05-12T02:54:39.698Z,11.50
2023-05-12T02:57:08.211Z,11.23
2023-05-12T02:59:36.197Z,10.90
2023-05-12T03:02:04.983Z,10.67
2023-05-12T03:04:34.325Z,9.47
2023-05-12T03:07:02.228Z,8.10
2023-05-12T03:09:30.266Z,9.97
2023-05-12T03:11:58.162Z,9.93
2023-05-12T03:14:28.634Z,10.13
2023-05-12T03:16:56.539Z,8.03
2023-05-12T03:19:24.514Z,8.60
2023-05-12T03:21:53.693Z,11.10
2023-05-12T03:24:21.950Z,9.83
2023-05-12T03:26:49.880Z,9.73
2023-05-12T03:29:17.731Z,11.90
2023-05-12T03:31:46.459Z,9.43
2023-05-12T03:34:15.188Z,9.60
2023-05-12T03:36:43.295Z,10.27
2023-05-12T03:39:13.268Z,9.97
2023-05-12T03:41:41.209Z,8.93
2023-05-12T03:44:09.961Z,10.80
2023-05-12T03:46:38.001Z,8.73
2023-05-12T03:49:05.856Z,9.00
2023-05-12T03:51:33.676Z,9.33
2023-05-12T03:54:01.502Z,10.20
2023-05-12T03:56:35.672Z,10.30
2023-05-12T03:59:04.095Z,10.90
2023-05-12T04:01:31.931Z,10.43
2023-05-12T04:04:01.790Z,8.40
2023-05-12T04:06:29.736Z,8.27
2023-05-12T04:08:58.684Z,9.00
2023-05-12T04:11:26.896Z,9.97
2023-05-12T04:13:56.695Z,9.77
2023-05-12T04:16:24.576Z,9.80
2023-05-12T04:18:57.346Z,10.27
2023-05-12T04:21:27.573Z,10.80
2023-05-12T04:23:55.956Z,9.67
2023-05-12T04:26:27.998Z,10.20
2023-05-12T04:28:57.369Z,9.90
2023-05-12T04:31:25.439Z,10.20
2023-05-12T04:33:55.890Z,10.10
2023-05-12T04:36:25.174Z,9.77
2023-05-12T04:38:55.052Z,9.63
2023-05-12T04:41:25.326Z,8.83
2023-05-12T04:46:25.495Z,9.90
2023-05-12T04:48:53.469Z,8.97
2023-05-12T04:51:21.376Z,9.57
2023-05-12T04:53:49.220Z,8.50
2023-05-12T04:56:17.225Z,10.20
2023-05-12T04:58:46.225Z,9.57
2023-05-12T05:01:14.426Z,9.27
2023-05-12T05:03:44.077Z,8.80
2023-05-12T05:06:14.537Z,8.60
2023-05-12T05:08:43.430Z,8.73
2023-05-12T05:11:11.195Z,8.67
2023-05-12T05:13:39.216Z,7.23
2023-05-12T05:16:07.762Z,8.83
2023-05-12T05:18:35.953Z,8.97
2023-05-12T05:21:05.575Z,9.20
2023-05-12T05:23:33.636Z,7.37
2023-05-12T05:26:01.602Z,8.50
2023-05-12T05:28:29.576Z,7.67
2023-05-12T05:30:57.963Z,9.47
2023-05-12T05:33:25.845Z,9.50
2023-05-12T05:35:56.565Z,8.57
2023-05-12T05:38:25.891Z,9.03
2023-05-12T05:40:54.669Z,9.57
2023-05-12T05:43:24.525Z,9.00
2023-05-12T05:45:55.943Z,9.90
2023-05-12T05:48:24.380Z,8.73
2023-05-12T05:50:53.694Z,9.50
2023-05-12T05:53:26.130Z,9.03
2023-05-12T05:55:56.560Z,8.53
2023-05-12T05:58:24.831Z,7.00
2023-05-12T06:00:57.100Z,9.93
2023-05-12T06:03:25.039Z,7.90
2023-05-12T06:05:53.450Z,9.00
2023-05-12T06:08:21.872Z,8.27
2023-05-12T06:10:51.320Z,7.23
2023-05-12T06:13:21.542Z,8.93
2023-05-12T06:15:49.433Z,10.27
2023-05-12T06:18:17.482Z,9.33
2023-05-12T06:20:45.294Z,8.73
2023-05-12T06:23:13.099Z,6.70
2023-05-12T06:25:41.273Z,7.30
2023-05-12T06:28:10.512Z,10.50
2023-05-12T06:30:38.338Z,8.60
2023-05-12T06:33:06.485Z,8.97
2023-05-12T06:35:34.256Z,9.13
2023-05-12T06:38:07.180Z,8.90
2023-05-12T06:40:35.022Z,8.23
2023-05-12T06:43:03.075Z,8.70
2023-05-12T06:45:32.295Z,13.27
2023-05-12T06:48:01.558Z,12.37
2023-05-12T06:50:29.808Z,12.63
2023-05-12T06:52:57.920Z,12.40
2023-05-12T06:55:26.004Z,13.90
2023-05-12T06:57:55.850Z,12.30
2023-05-12T07:00:24.442Z,11.83
2023-05-12T07:02:53.945Z,14.40
2023-05-12T07:05:22.124Z,11.40
2023-05-12T07:07:50.298Z,12.53
2023-05-12T07:10:18.101Z,11.50
2023-05-12T07:12:45.858Z,11.60
2023-05-12T07:15:13.771Z,10.27
2023-05-12T07:17:41.606Z,8.50
2023-05-12T07:20:11.584Z,6.93
2023-05-12T07:22:39.499Z,10.77
2023-05-12T07:25:08.170Z,9.83
2023-05-12T07:27:36.211Z,10.37
2023-05-12T07:30:05.805Z,10.77
2023-05-12T07:32:33.660Z,9.07
2023-05-12T07:35:01.510Z,9.23
2023-05-12T07:37:30.874Z,6.10
2023-05-12T07:39:58.774Z,7.43
2023-05-12T07:42:26.648Z,7.10
2023-05-12T07:44:54.507Z,5.47
2023-05-12T07:47:22.367Z,4.97
2023-05-12T07:49:50.139Z,4.83
2023-05-12T07:52:17.998Z,5.10
2023-05-12T07:54:47.230Z,3.83
2023-05-12T07:57:15.095Z,4.60
2023-05-12T07:59:42.957Z,3.07
2023-05-12T08:02:10.972Z,3.97
2023-05-12T08:04:38.866Z,5.17
2023-05-12T08:07:06.729Z,5.20
2023-05-12T08:09:34.502Z,6.00
2023-05-12T08:12:03.803Z,5.37
2023-05-12T08:14:31.638Z,5.23
2023-05-12T08:16:59.543Z,4.47
2023-05-12T08:19:27.482Z,4.10
2023-05-12T08:21:55.373Z,4.53
2023-05-12T08:24:23.222Z,4.87
2023-05-12T08:26:51.072Z,5.40
2023-05-12T08:29:20.382Z,4.97
2023-05-12T08:31:48.308Z,4.63
2023-05-12T08:34:16.121Z,4.20
2023-05-12T08:36:44.098Z,4.60
2023-05-12T08:39:12.656Z,4.22
2023-05-12T08:41:44.685Z,3.75
2023-05-12T08:44:13.521Z,4.13
2023-05-12T08:46:43.518Z,3.97
2023-05-12T08:49:15.756Z,4.47
2023-05-12T08:51:49.871Z,4.35
2023-05-12T08:54:23.983Z,3.10
2023-05-12T08:59:26.027Z,3.70
2023-05-12T09:01:56.201Z,3.80
2023-05-12T09:04:24.231Z,3.33
2023-05-12T09:06:54.955Z,3.00
2023-05-12T09:09:26.151Z,3.20
2023-05-12T09:11:57.869Z,2.70
2023-05-12T09:14:26.989Z,3.30
2023-05-12T09:17:02.526Z,3.58
2023-05-12T09:19:31.346Z,3.80
2023-05-12T09:22:00.282Z,3.85
2023-05-12T09:24:42.172Z,4.30
2023-05-12T09:27:10.632Z,3.92
2023-05-12T09:29:59.385Z,4.07
2023-05-12T09:32:36.602Z,4.53
2023-05-12T09:35:07.808Z,3.50
2023-05-12T09:37:36.239Z,3.25
2023-05-12T09:40:08.052Z,3.38
2023-05-12T09:42:37.157Z,3.20
2023-05-12T09:45:05.892Z,3.40
2023-05-12T09:47:39.239Z,3.00
2023-05-12T09:50:10.159Z,2.90
2023-05-12T09:52:39.821Z,2.30
2023-05-12T09:55:10.235Z,2.50
2023-05-12T09:57:41.644Z,2.20
2023-05-12T10:00:28.639Z,2.30
2023-05-12T10:03:04.566Z,2.03
2023-05-12T10:05:33.721Z,2.25
2023-05-12T10:08:05.118Z,2.63
2023-05-12T10:10:35.162Z,2.65
2023-05-12T10:13:04.644Z,3.67
2023-05-12T10:15:34.120Z,2.25
2023-05-12T10:18:05.868Z,2.30
2023-05-12T10:20:36.516Z,3.10
2023-05-12T10:23:05.390Z,2.15
2023-05-12T10:25:34.057Z,3.42
2023-05-12T10:28:03.922Z,3.47
2023-05-12T10:30:32.711Z,3.72
2023-05-12T10:33:03.157Z,4.00
2023-05-12T10:35:36.353Z,3.85
2023-05-12T10:38:08.615Z,3.50
2023-05-12T10:40:36.949Z,3.70
2023-05-12T10:43:05.365Z,3.50
2023-05-12T10:45:37.684Z,3.42
2023-05-12T10:48:07.165Z,3.38
2023-05-12T10:50:36.638Z,3.30
2023-05-12T10:53:04.484Z,3.60
2023-05-12T10:55:34.798Z,4.03
2023-05-12T10:58:08.681Z,3.50
2023-05-12T11:00:45.859Z,3.35
2023-05-12T11:03:17.412Z,2.45
2023-05-12T11:05:49.026Z,2.00
2023-05-12T11:08:22.283Z,2.08
2023-05-12T11:10:51.892Z,1.80
2023-05-12T11:13:20.338Z,2.10
2023-05-12T11:15:48.850Z,2.20
2023-05-12T11:18:21.679Z,2.20
2023-05-12T11:20:51.386Z,2.45
2023-05-12T11:23:27.311Z,2.40
2023-05-12T11:25:55.256Z,2.47
2023-05-12T11:28:23.648Z,2.20
2023-05-12T11:30:54.869Z,3.03
2023-05-12T11:33:23.871Z,3.70
2023-05-12T11:49:24.192Z,1.95
2023-05-12T11:51:56.536Z,1.98
2023-05-12T11:54:26.034Z,2.10
2023-05-12T11:56:55.390Z,2.05
2023-05-12T11:59:30.757Z,2.35
2023-05-12T12:01:59.896Z,2.42
2023-05-12T12:04:42.139Z,1.70
2023-05-12T12:07:10.693Z,1.65
2023-05-12T12:09:40.684Z,2.15
2023-05-12T12:12:12.318Z,2.25
2023-05-12T12:14:41.492Z,2.58
2023-05-12T12:17:11.561Z,1.80
2023-05-12T12:19:40.720Z,2.30
2023-05-12T12:22:08.615Z,2.22
2023-05-12T12:24:36.482Z,2.88
2023-05-12T12:27:05.412Z,2.55
2023-05-12T12:29:33.190Z,2.60
2023-05-12T12:32:03.270Z,2.35
2023-05-12T12:34:31.156Z,2.72
2023-05-12T12:37:00.265Z,2.45
2023-05-12T12:39:28.073Z,2.90
2023-05-12T12:41:55.932Z,3.30
2023-05-12T12:44:23.743Z,3.40
2023-05-12T12:46:53.563Z,3.53
2023-05-12T12:49:21.998Z,4.07
2023-05-12T12:51:49.904Z,5.13
2023-05-12T12:54:19.117Z,5.30
2023-05-12T12:56:47.276Z,5.38
2023-05-12T12:59:15.091Z,6.72
2023-05-12T13:01:43.628Z,6.75
2023-05-12T13:04:11.514Z,5.45
2023-05-12T13:06:39.294Z,6.30
2023-05-12T13:09:07.235Z,6.10
2023-05-12T13:11:36.417Z,6.90
2023-05-12T13:14:04.598Z,6.25
2023-05-12T13:16:32.617Z,6.50
2023-05-12T13:19:00.524Z,6.57
2023-05-12T13:21:28.850Z,6.18
2023-05-12T13:23:56.630Z,6.25
2023-05-12T13:26:26.949Z,6.30
2023-05-12T13:28:56.234Z,5.43
2023-05-12T13:31:26.163Z,5.88
2023-05-12T13:33:53.983Z,6.22
2023-05-12T13:36:21.749Z,6.88
2023-05-12T13:38:51.867Z,6.88
2023-05-12T13:41:19.661Z,6.88
2023-05-12T13:43:48.196Z,7.80
2023-05-12T13:46:17.366Z,6.53
2023-05-12T13:48:45.468Z,6.90
2023-05-12T13:51:13.544Z,7.10
2023-05-12T13:53:42.927Z,6.90
2023-05-12T13:56:17.135Z,6.97
2023-05-12T13:58:45.545Z,6.40
2023-05-12T14:01:13.724Z,6.18
2023-05-12T14:03:46.001Z,6.15
2023-05-12T14:06:16.216Z,5.47
2023-05-12T14:08:44.072Z,5.70
2023-05-12T14:11:12.363Z,6.00
2023-05-12T14:13:40.241Z,5.55
2023-05-12T14:16:08.872Z,5.60
2023-05-12T14:18:37.585Z,5.18
2023-05-12T14:21:06.963Z,6.30
2023-05-12T14:23:34.798Z,5.80
2023-05-12T14:26:03.566Z,4.93
2023-05-12T14:28:31.613Z,5.57
2023-05-12T14:30:59.573Z,5.03
2023-05-12T14:33:27.466Z,5.03
2023-05-12T14:36:05.995Z,4.93
2023-05-12T14:38:39.273Z,5.45
2023-05-12T14:41:08.549Z,4.78
2023-05-12T14:43:36.620Z,3.95
2023-05-12T14:46:06.226Z,4.25
2023-05-12T14:48:34.208Z,4.43
2023-05-12T14:51:03.173Z,4.40
2023-05-12T14:53:31.184Z,3.92
2023-05-12T14:56:00.377Z,4.13
2023-05-12T14:58:30.199Z,3.58
2023-05-12T15:00:59.301Z,3.63
2023-05-12T15:03:27.392Z,4.03
2023-05-12T15:06:05.822Z,3.67
2023-05-12T15:08:36.859Z,3.22
2023-05-12T15:11:06.153Z,3.25
2023-05-12T15:13:36.579Z,3.42
2023-05-12T15:16:04.851Z,2.90
2023-05-12T15:18:32.974Z,2.70
2023-05-12T15:21:01.027Z,2.50
2023-05-12T15:23:31.058Z,2.92
2023-05-12T15:26:03.242Z,2.80
2023-05-12T15:28:36.389Z,2.80
2023-05-12T15:31:06.689Z,2.85
2023-05-12T15:33:34.545Z,2.83
2023-05-12T15:36:02.432Z,2.97
2023-05-12T15:38:30.341Z,3.10
2023-05-12T15:40:59.621Z,3.00
2023-05-12T15:43:30.265Z,3.22
2023-05-12T15:45:59.504Z,3.35
2023-05-12T15:48:27.409Z,2.70
2023-05-12T15:50:55.184Z,3.55
2023-05-12T15:53:22.934Z,3.30
2023-05-12T15:56:00.289Z,3.95
2023-05-12T15:58:34.071Z,3.88
2023-05-12T16:01:04.741Z,3.28
2023-05-12T16:03:34.986Z,3.30
2023-05-12T16:06:03.365Z,3.05
2023-05-12T16:08:31.150Z,2.97
2023-05-12T16:10:59.120Z,3.13
2023-05-12T16:13:26.901Z,3.03
2023-05-12T16:15:54.716Z,3.08
2023-05-12T16:18:24.065Z,3.08
2023-05-12T16:20:51.907Z,3.13
2023-05-12T16:23:19.660Z,3.58
2023-05-12T16:25:47.537Z,3.17
2023-05-12T16:28:16.043Z,3.33
2023-05-12T16:30:43.847Z,3.70
2023-05-12T16:33:11.665Z,2.90
2023-05-12T16:35:41.021Z,3.00
2023-05-12T16:38:16.677Z,2.70
2023-05-12T16:40:48.722Z,3.05
2023-05-12T16:43:16.996Z,3.25
2023-05-12T16:45:44.837Z,3.00
2023-05-12T16:48:12.752Z,2.78
2023-05-12T16:50:41.866Z,3.10
2023-05-12T16:53:09.825Z,3.28
2023-05-12T16:55:37.701Z,3.00
2023-05-12T16:58:05.525Z,3.10
2023-05-12T17:00:36.206Z,3.30
2023-05-12T17:03:08.799Z,3.17
2023-05-12T17:05:37.994Z,3.35
2023-05-12T17:08:07.319Z,3.40
2023-05-12T17:10:35.243Z,3.30
2023-05-12T17:13:03.013Z,3.58
2023-05-12T17:15:32.907Z,3.22
2023-05-12T17:18:01.104Z,2.75
2023-05-12T17:20:31.410Z,3.63
2023-05-12T17:23:02.559Z,3.28
2023-05-12T17:25:32.112Z,2.90
2023-05-12T17:28:00.296Z,3.15
2023-05-12T17:30:28.311Z,3.50
2023-05-12T17:32:56.269Z,3.20
2023-05-12T17:35:24.346Z,2.60
2023-05-12T17:37:52.836Z,2.40
2023-05-12T17:40:20.993Z,2.60
2023-05-12T17:42:50.715Z,2.70
2023-05-12T17:45:18.847Z,2.90
2023-05-12T17:47:47.909Z,2.80
2023-05-12T17:50:16.308Z,3.20
2023-05-12T17:52:44.607Z,2.17
2023-05-12T17:55:14.615Z,2.42
2023-05-12T17:57:42.746Z,2.13
2023-05-12T18:00:16.685Z,2.43
2023-05-12T18:02:48.634Z,2.20
2023-05-12T18:05:22.298Z,2.17
2023-05-12T18:07:51.436Z,2.10
2023-05-12T18:10:19.292Z,1.73
2023-05-12T18:12:51.239Z,2.10
2023-05-12T18:15:22.448Z,2.10
2023-05-12T18:17:50.402Z,1.98
2023-05-12T18:20:18.958Z,1.77
2023-05-12T18:22:50.704Z,1.90
2023-05-12T18:25:18.671Z,1.70
2023-05-12T18:27:46.609Z,1.87
2023-05-12T18:30:15.607Z,1.80
2023-05-12T18:32:44.870Z,1.80
2023-05-12T18:35:13.027Z,1.87
2023-05-12T18:37:40.800Z,1.60
2023-05-12T18:40:09.772Z,1.87
2023-05-12T18:42:37.733Z,1.40
2023-05-12T18:45:06.613Z,1.70
2023-05-12T18:47:34.613Z,1.70
2023-05-12T18:50:04.217Z,1.73
2023-05-12T18:52:32.124Z,2.17
2023-05-12T18:54:59.939Z,1.73
2023-05-12T18:57:30.165Z,2.20
2023-05-12T18:59:57.947Z,1.60
2023-05-12T19:02:25.855Z,1.83
2023-05-12T19:04:54.919Z,1.60
2023-05-12T19:07:24.152Z,1.60
2023-05-12T19:09:51.913Z,1.80
2023-05-12T19:12:19.796Z,2.20
2023-05-12T19:14:48.092Z,2.00
2023-05-12T19:17:19.271Z,1.90
2023-05-12T19:19:50.527Z,2.20
2023-05-12T19:22:18.370Z,1.83
2023-05-12T19:24:47.649Z,1.40
2023-05-12T19:27:15.589Z,1.60
2023-05-12T19:29:43.400Z,1.33
2023-05-12T19:32:11.376Z,1.53
2023-05-12T19:34:39.346Z,1.40
2023-05-12T19:37:07.260Z,1.50
2023-05-12T19:39:35.097Z,1.43
2023-05-12T19:42:04.354Z,1.30
2023-05-12T19:44:32.235Z,1.30
2023-05-12T19:47:04.798Z,1.30
2023-05-12T19:49:34.197Z,1.03
2023-05-12T19:52:02.094Z,1.20
2023-05-12T19:54:29.956Z,1.40
2023-05-12T19:56:57.711Z,1.10
2023-05-12T19:59:26.871Z,1.10
2023-05-12T20:01:54.778Z,1.20
2023-05-12T20:04:23.894Z,1.37
2023-05-12T20:06:53.831Z,1.20
2023-05-12T20:09:22.130Z,1.40
2023-05-12T20:11:49.867Z,1.00
2023-05-12T20:14:17.649Z,1.30
2023-05-12T20:16:46.981Z,1.50
2023-05-12T20:19:14.901Z,1.20
2023-05-12T20:21:43.149Z,1.50
2023-05-12T20:24:11.050Z,1.30
2023-05-12T20:26:39.213Z,1.20
2023-05-12T20:29:07.041Z,1.10
2023-05-12T20:31:35.223Z,1.40
2023-05-12T20:34:04.517Z,1.50
2023-05-12T20:36:32.970Z,1.77
2023-05-12T20:39:00.725Z,1.80
2023-05-12T20:41:28.611Z,1.60
2023-05-12T20:43:56.507Z,1.77
2023-05-12T20:46:24.861Z,1.73
2023-05-12T20:48:52.736Z,2.43
2023-05-12T20:51:24.629Z,2.10
2023-05-12T20:53:52.930Z,1.60
2023-05-12T20:56:22.670Z,1.90
2023-05-12T20:58:50.636Z,1.47
2023-05-12T21:01:18.614Z,1.90
2023-05-12T21:03:46.657Z,2.27
2023-05-12T21:06:14.509Z,1.90
2023-05-12T21:08:43.780Z,2.23
2023-05-12T21:11:16.478Z,2.00
2023-05-12T21:13:44.605Z,2.10
2023-05-12T21:16:12.544Z,2.30
2023-05-12T21:18:40.491Z,2.00
2023-05-12T21:21:08.305Z,2.27
2023-05-12T21:23:37.501Z,2.13
2023-05-12T21:26:06.706Z,1.97
2023-05-12T21:28:34.503Z,2.67
2023-05-12T21:31:02.378Z,1.80
2023-05-12T21:33:32.951Z,2.13
2023-05-12T21:36:00.800Z,2.10
2023-05-12T21:38:28.630Z,2.10
2023-05-12T21:40:56.491Z,2.20
2023-05-12T21:43:25.693Z,2.47
2023-05-12T21:45:53.656Z,2.37
2023-05-12T21:48:21.491Z,2.70
2023-05-12T21:50:58.303Z,2.30
2023-05-12T21:53:26.196Z,2.23
2023-05-12T21:55:53.982Z,2.53
2023-05-12T21:58:23.591Z,2.10
2023-05-12T22:00:53.261Z,2.40
2023-05-12T22:03:21.959Z,2.13
2023-05-12T22:05:49.984Z,2.20
2023-05-12T22:08:18.505Z,2.70
2023-05-12T22:10:46.794Z,2.10
2023-05-12T22:13:14.750Z,2.00
2023-05-12T22:15:42.988Z,2.30
2023-05-12T22:18:12.242Z,2.33
2023-05-12T22:20:40.352Z,1.87
2023-05-12T22:23:08.306Z,2.60
2023-05-12T22:25:36.236Z,2.53
2023-05-12T22:28:05.875Z,2.10
2023-05-12T22:30:35.061Z,2.00
2023-05-12T22:33:03.004Z,2.17
2023-05-12T22:35:32.283Z,2.67
2023-05-12T22:38:00.376Z,2.70
2023-05-12T22:40:30.683Z,2.20
2023-05-12T22:42:58.588Z,2.60
2023-05-12T22:45:26.404Z,2.80
2023-05-12T22:47:56.545Z,2.40
2023-05-12T22:50:24.675Z,2.37
2023-05-12T22:52:57.225Z,2.40
2023-05-12T22:55:26.216Z,2.57
2023-05-12T22:57:53.970Z,2.80
2023-05-12T23:00:22.111Z,2.67
2023-05-12T23:02:50.039Z,2.53
2023-05-12T23:05:17.983Z,2.70
2023-05-12T23:07:46.164Z,2.80
2023-05-12T23:10:15.418Z,2.57
2023-05-12T23:12:43.286Z,2.40
2023-05-12T23:15:11.715Z,2.50
2023-05-12T23:17:41.700Z,2.77
2023-05-12T23:20:10.249Z,2.70
2023-05-12T23:22:40.065Z,2.23
2023-05-12T23:25:08.937Z,2.40
2023-05-12T23:27:38.156Z,2.60
2023-05-12T23:30:07.232Z,2.60
2023-05-12T23:32:35.179Z,2.37
2023-05-12T23:35:03.094Z,2.73
2023-05-12T23:37:30.916Z,2.70
2023-05-12T23:39:58.742Z,2.50
2023-05-12T23:42:26.546Z,2.40
2023-05-12T23:44:57.977Z,3.00
2023-05-12T23:47:26.030Z,2.90
2023-05-12T23:49:53.838Z,2.67
2023-05-12T23:52:21.585Z,2.60
2023-05-12T23:54:49.405Z,2.73
2023-05-12T23:57:17.251Z,2.33
2023-05-12T23:59:45.479Z,2.30
